AirNav   Air Wisconsin Up To $57,000 Bonus
 
 636 users online  

7XS0 Polly Ranch Airport
Friendswood, Texas, USA

GOING TO FRIENDSWOOD?


FAA INFORMATION EFFECTIVE 02 DECEMBER 2021

Location

FAA Identifier: 7XS0
Lat/Long: 29-30-16.8390N 095-10-31.7580W
29-30.280650N 095-10.529300W
29.5046775,-95.1754883
(estimated)
Elevation: 24 ft. / 7.3 m (surveyed)
Variation: 06E (1985)
From city: 3 miles SE of FRIENDSWOOD, TX
Time zone: UTC -6 (UTC -5 during Daylight Saving Time)
Zip code: 77546

Airport Operations

Airport use: Private use. Permission required prior to landing
Activation date: 03/1977
Control tower: no
ARTCC: HOUSTON CENTER
FSS: MONTGOMERY COUNTY FLIGHT SERVICE STATION
Attendance: UNATNDD
Wind indicator: yes
Segmented circle: no
Lights: SS-SR
Landing fee: yes

Airport Communications

WX ASOS at LVJ (4 nm W): 118.525 (281-992-1853)
WX AWOS-3 at EFD (6 nm N): 135.575 (713-847-4430)
WX ASOS at HOU (10 nm NW): PHONE 713-847-1462
WX AWOS-3PT at T41 (11 nm NE): 120.275 (281-471-2206)
WX AWOS-3 at AXH (16 nm W): 123.625 (281-431-6572)

Nearby radio navigation aids

VOR radial/distance  VOR name  Freq  Var
VUHr305/21.4SCHOLES VOR/DME113.0006E
MHFr257/22.5TRINITY VOR/DME113.6007E
IAHr157/28.5HUMBLE VORTAC116.6005E

Airport Services

Runway Information

Runway 11/29

Dimensions: 2700 x 22 ft. / 823 x 7 m
Surface: asphalt
Runway edge lights: low intensity
RUNWAY 11  RUNWAY 29
Traffic pattern: leftleft
Displaced threshold: 300 ft.300 ft.
Obstructions: none50 ft. trees, 500 ft. from runway

Airport Ownership and Management from official FAA records

Ownership: Privately-owned
Owner: POLLY RANCH HOME OWNERS ASSOC
PO BOX 161
FRIENDSWOOD, TX 77546
Phone 713-482-6430
Manager: GAYLON KOENNING
2304 BUTLER DR
FRIENDSWOOD, TX 77546
Phone (713) 503-2055

Airport Operational Statistics

Aircraft based on the field: 36
Single engine airplanes: 30
Multi engine airplanes: 6
    

Additional Remarks

FOR CD CTC HOUSTON APCH AT 281-443-5844.

Instrument Procedures

There are no published instrument procedures at 7XS0.

Some nearby airports with instrument procedures:

KLVJ - Pearland Regional Airport (4 nm W)
KEFD - Ellington Airport (6 nm N)
KHOU - William P Hobby Airport (10 nm NW)
T41 - La Porte Municipal Airport (11 nm NE)
KAXH - Houston Southwest Airport (16 nm W)
 
Loc | Ops | Rwys | IFR | FBO | Links
Com | Nav | Svcs | Stats | Notes
Area around 7XS0 (Polly Ranch Airport)
 
Road maps at: MapQuest Bing Google
 
Aerial photo
WARNING: Photo may not be current or correct
Aerial photo of 7XS0 (Polly Ranch Airport)
Do you have a better or more recent aerial photo of Polly Ranch Airport that you would like to share? If so, please send us your photo.

 
Sectional chart

 
Airport distance calculator
Flying to Polly Ranch Airport? Find the distance to fly.

From to 7XS0

Sunrise and sunset
Times for 08-Dec-2021
 Local
(UTC-6)
 Zulu
(UTC)
Morning civil twilight06:3812:38
Sunrise07:0413:04
Sunset17:2123:21
Evening civil twilight17:4723:47

Current date and time
Zulu (UTC)  08-Dec-2021 06:02:14
Local (UTC-6)  08-Dec-2021 00:02:14
 
METAR
KLVJ 
4nm W 
080553Z AUTO 00000KT 8SM OVC008 18/15 A3001 RMK AO2 SLP161 60000 T01780150 10178 20167 401830133 50006
KEFD 
6nm N 
080450Z 11004KT 10SM OVC009 16/14 A3000
KHOU 
10nm NW 
080553Z 08003KT 8SM OVC009 18/15 A2999 RMK AO2 RAB41E52 SLP161 P0000 60000 T01780150 10183 20178 401940139 50005
KT41 
11nm NE 
080555Z AUTO 08005KT 10SM OVC010 16/14 A3000 RMK AO2 T01600142 10168 20159
KAXH 
16nm W 
080555Z AUTO 00000KT 10SM OVC007 17/16 A3001 RMK AO2 T01660159 10176 20158
TAF
KEFD 
6nm N 
080400Z 0804/0910 08006KT 9999 OVC013 QNH2997INS BECMG 0805/0806 VRB06KT 6000 BR OVC004 QNH2996INS BECMG 0815/0816 VRB06KT 8000 BR SCT004 BKN020 QNH3000INS BECMG 0901/0902 12009KT 8000 BR BKN004 QNH2997INS TX19/0821Z TN15/0804Z
KHOU 
10nm NW 
080251Z 0803/0824 VRB06KT P6SM SCT017 OVC025 FM080600 00000KT 5SM BR OVC007 FM081600 VRB05KT P6SM BKN015 FM082000 VRB04KT P6SM BKN045
NOTAMs
Click for the latest NOTAMs
NOTAMs are issued by the DoD/FAA and will open in a separate window not controlled by AirNav.

 

 
 

Would you like to see your business listed on this page?

 If your business provides an interesting product or service to pilots, flight crews, aircraft, or users of the Polly Ranch Airport, you should consider listing it here.  To start the listing process, click on the button below
 
Add a business
 

Other Pages about Polly Ranch Airport

www.pollyranch.com
 
Update a link
 
Copyright © AirNav, LLC. All rights reserved. Privacy Policy  Contact